Time,TemperatureF,DewpointF,PressureIn,WindDirection,WindDirectionDegrees,WindSpeedMPH,WindSpeedGustMPH,Humidity,HourlyPrecipIn,Conditions,Clouds,dailyrainin,SolarRadiationWatts/m^2,SoftwareType,DateUTC
2013-05-10 00:02:00,58.0,57.0,-100.00,SSE,154,0.0,2.0,95,0.00,,,0.00,0.000000,,2013-05-10 10:02:00,
2013-05-10 00:12:00,58.0,57.0,-100.00,SSE,154,0.0,2.0,95,0.00,,,0.00,0.000000,,2013-05-10 10:12:00,
2013-05-10 00:42:00,58.0,57.0,-100.00,SE,124,1.0,4.0,96,0.00,,,0.00,0.000000,,2013-05-10 10:42:00,
2013-05-10 00:52:00,58.0,57.0,-100.00,SE,124,1.0,4.0,96,0.00,,,0.00,0.000000,,2013-05-10 10:52:00,
2013-05-10 01:02:00,58.0,57.0,-100.00,SE,124,1.0,4.0,96,0.00,,,0.00,0.000000,,2013-05-10 11:02:00,
2013-05-10 01:12:00,58.0,57.0,-100.00,SE,124,1.0,4.0,96,0.00,,,0.00,0.000000,,2013-05-10 11:12:00,
2013-05-10 01:21:00,58.0,57.0,-100.00,SE,124,1.0,4.0,96,0.00,,,0.00,0.000000,,2013-05-10 11:21:00,
2013-05-10 03:42:00,56.0,55.0,-100.00,SE,126,0.0,1.0,96,-99.99,,,0.00,0.000000,,2013-05-10 13:42:00,
2013-05-10 03:52:00,56.0,55.0,-100.00,SE,126,0.0,1.0,96,-99.99,,,0.00,0.000000,,2013-05-10 13:52:00,
2013-05-10 04:02:00,56.0,55.0,-100.00,SE,126,0.0,1.0,96,-99.99,,,0.00,0.000000,,2013-05-10 14:02:00,
2013-05-10 04:11:00,56.0,55.0,-100.00,SE,126,0.0,1.0,96,-99.99,,,0.00,0.000000,,2013-05-10 14:11:00,
2013-05-10 04:21:00,56.0,55.0,-100.00,SE,126,0.0,1.0,96,-99.99,,,0.00,0.000000,,2013-05-10 14:21:00,
2013-05-10 04:42:00,55.0,54.0,-100.00,SSE,149,0.0,1.0,96,0.00,,,0.00,0.000000,,2013-05-10 14:42:00,
2013-05-10 04:52:00,55.0,54.0,-100.00,SSE,149,0.0,1.0,96,0.00,,,0.00,0.000000,,2013-05-10 14:52:00,
2013-05-10 05:01:00,55.0,54.0,-100.00,SSE,149,0.0,1.0,96,0.00,,,0.00,0.000000,,2013-05-10 15:01:00,
2013-05-10 05:20:00,-999.0,-99.9,-100.00,SSE,149,0.0,1.0,96,0.00,,,0.00,0.000000,,2013-05-10 15:20:00,
2013-05-10 05:22:00,55.0,54.0,-100.00,SE,130,0.0,1.0,96,0.00,,,0.00,0.000000,,2013-05-10 15:22:00,
2013-05-10 05:42:00,55.0,54.0,-100.00,SE,130,0.0,1.0,96,0.00,,,0.00,0.000000,,2013-05-10 15:42:00,
2013-05-10 05:53:00,55.0,54.0,-100.00,SE,130,0.0,1.0,96,0.00,,,0.00,0.000000,,2013-05-10 15:53:00,
2013-05-10 06:02:00,55.0,54.0,-100.00,SE,130,0.0,1.0,96,0.00,,,0.00,0.000000,,2013-05-10 16:02:00,
2013-05-10 06:12:00,55.0,54.0,-100.00,SE,130,0.0,1.0,96,0.00,,,0.00,0.000000,,2013-05-10 16:12:00,
2013-05-10 06:43:00,55.0,54.0,-100.00,SE,136,0.0,1.0,96,0.00,,,0.00,0.000000,,2013-05-10 16:43:00,
2013-05-10 06:52:00,55.0,54.0,-100.00,SE,136,0.0,1.0,96,0.00,,,0.00,0.000000,,2013-05-10 16:52:00,
2013-05-10 07:02:00,55.0,54.0,-100.00,SE,136,0.0,1.0,96,0.00,,,0.00,0.000000,,2013-05-10 17:02:00,
2013-05-10 07:12:00,55.0,54.0,-100.00,SE,136,0.0,1.0,96,0.00,,,0.00,0.000000,,2013-05-10 17:12:00,
2013-05-10 07:21:00,55.0,54.0,-100.00,SE,136,0.0,1.0,96,0.00,,,0.00,0.000000,,2013-05-10 17:21:00,
2013-05-10 07:42:00,56.0,55.0,-100.00,ESE,118,0.0,2.0,97,0.00,,,0.00,18.000000,,2013-05-10 17:42:00,
2013-05-10 07:52:00,56.0,55.0,-100.00,ESE,118,0.0,2.0,97,0.00,,,0.00,18.000000,,2013-05-10 17:52:00,
2013-05-10 08:10:00,-999.0,-99.9,-100.00,ESE,118,0.0,2.0,97,0.00,,,0.00,18.000000,,2013-05-10 18:10:00,
2013-05-10 08:21:00,56.0,55.0,-100.00,ESE,118,0.0,2.0,97,0.00,,,0.00,18.000000,,2013-05-10 18:21:00,
2013-05-10 08:43:00,60.0,59.0,-100.00,East,89,0.0,3.0,96,0.00,,,-99.99,162.000000,,2013-05-10 18:43:00,
2013-05-10 08:54:00,60.0,59.0,-100.00,East,89,0.0,3.0,96,0.00,,,-99.99,162.000000,,2013-05-10 18:54:00,
2013-05-10 09:02:00,60.0,59.0,-100.00,East,89,0.0,3.0,96,0.00,,,-99.99,162.000000,,2013-05-10 19:02:00,
2013-05-10 09:11:00,60.0,59.0,-100.00,East,89,0.0,3.0,96,0.00,,,-99.99,162.000000,,2013-05-10 19:11:00,
2013-05-10 09:21:00,60.0,59.0,-100.00,East,89,0.0,3.0,96,0.00,,,-99.99,162.000000,,2013-05-10 19:21:00,
2013-05-10 09:42:00,62.0,60.0,-100.00,NE,53,1.0,3.0,92,0.00,,,0.00,198.000000,,2013-05-10 19:42:00,
2013-05-10 09:52:00,62.0,60.0,-100.00,NE,53,1.0,3.0,92,0.00,,,0.00,198.000000,,2013-05-10 19:52:00,
2013-05-10 10:01:00,62.0,60.0,-100.00,NE,53,1.0,3.0,92,0.00,,,0.00,198.000000,,2013-05-10 20:01:00,
2013-05-10 10:11:00,62.0,60.0,-100.00,NE,53,1.0,3.0,92,0.00,,,0.00,198.000000,,2013-05-10 20:11:00,
2013-05-10 10:21:00,62.0,60.0,-100.00,NE,53,1.0,3.0,92,0.00,,,0.00,198.000000,,2013-05-10 20:21:00,
2013-05-10 10:22:00,63.0,61.0,-100.00,ENE,64,1.0,3.0,93,0.00,,,0.00,170.000000,,2013-05-10 20:22:00,
2013-05-10 10:42:00,63.0,61.0,-100.00,ENE,64,1.0,3.0,93,0.00,,,0.00,170.000000,,2013-05-10 20:42:00,
2013-05-10 10:52:00,63.0,61.0,-100.00,ENE,64,1.0,3.0,93,0.00,,,0.00,170.000000,,2013-05-10 20:52:00,
2013-05-10 11:01:00,63.0,61.0,-100.00,ENE,64,1.0,3.0,93,0.00,,,0.00,170.000000,,2013-05-10 21:01:00,
2013-05-10 11:11:00,63.0,61.0,-100.00,ENE,64,1.0,3.0,93,0.00,,,0.00,170.000000,,2013-05-10 21:11:00,
2013-05-10 11:22:00,63.0,62.0,-100.00,NE,45,1.0,3.0,95,0.00,,,0.00,196.000000,,2013-05-10 21:22:00,
2013-05-10 11:43:00,63.0,62.0,-100.00,NE,45,1.0,3.0,95,0.00,,,0.00,196.000000,,2013-05-10 21:43:00,
2013-05-10 11:52:00,63.0,62.0,-100.00,NE,45,1.0,3.0,95,0.00,,,0.00,196.000000,,2013-05-10 21:52:00,
2013-05-10 12:02:00,63.0,62.0,-100.00,NE,45,1.0,3.0,95,0.00,,,0.00,196.000000,,2013-05-10 22:02:00,
2013-05-10 12:12:00,63.0,62.0,-100.00,NE,45,1.0,3.0,95,0.00,,,0.00,196.000000,,2013-05-10 22:12:00,
2013-05-10 12:42:00,63.0,62.0,-100.00,NW,313,1.0,5.0,95,0.00,,,0.00,254.000000,,2013-05-10 22:42:00,
2013-05-10 12:52:00,63.0,62.0,-100.00,NW,313,1.0,5.0,95,0.00,,,0.00,254.000000,,2013-05-10 22:52:00,
2013-05-10 13:02:00,63.0,62.0,-100.00,NW,313,1.0,5.0,95,0.00,,,0.00,254.000000,,2013-05-10 23:02:00,
2013-05-10 13:12:00,63.0,62.0,-100.00,NW,313,1.0,5.0,95,0.00,,,0.00,254.000000,,2013-05-10 23:12:00,
2013-05-10 13:21:00,63.0,62.0,-100.00,NW,313,1.0,5.0,95,0.00,,,0.00,254.000000,,2013-05-10 23:21:00,
2013-05-10 13:42:00,65.0,64.0,-100.00,WNW,287,1.0,5.0,95,0.12,,,0.12,321.000000,,2013-05-10 23:42:00,
2013-05-10 13:52:00,65.0,64.0,-100.00,WNW,287,1.0,5.0,95,0.12,,,0.12,321.000000,,2013-05-10 23:52:00,
2013-05-10 14:01:00,65.0,64.0,-100.00,WNW,287,1.0,5.0,95,0.12,,,0.12,321.000000,,2013-05-11 00:01:00,
2013-05-10 14:11:00,65.0,64.0,-100.00,WNW,287,1.0,5.0,95,0.12,,,0.12,321.000000,,2013-05-11 00:11:00,
2013-05-10 14:21:00,65.0,64.0,-100.00,WNW,287,1.0,5.0,95,0.12,,,0.12,321.000000,,2013-05-11 00:21:00,
2013-05-10 14:42:00,64.0,63.0,-100.00,NE,39,1.0,5.0,95,0.14,,,0.26,331.000000,,2013-05-11 00:42:00,
2013-05-10 14:52:00,64.0,63.0,-100.00,NE,39,1.0,5.0,95,0.14,,,0.26,331.000000,,2013-05-11 00:52:00,
2013-05-10 15:01:00,64.0,63.0,-100.00,NE,39,1.0,5.0,95,0.14,,,0.26,331.000000,,2013-05-11 01:01:00,
2013-05-10 15:11:00,64.0,63.0,-100.00,NE,39,1.0,5.0,95,0.14,,,0.26,331.000000,,2013-05-11 01:11:00,
2013-05-10 15:21:00,64.0,63.0,-100.00,NE,39,1.0,5.0,95,0.14,,,0.26,331.000000,,2013-05-11 01:21:00,
2013-05-10 15:42:00,64.0,62.0,-100.00,SSE,149,1.0,4.0,94,0.06,,,0.32,323.000000,,2013-05-11 01:42:00,
2013-05-10 15:52:00,64.0,62.0,-100.00,SSE,149,1.0,4.0,94,0.06,,,0.32,323.000000,,2013-05-11 01:52:00,
2013-05-10 16:02:00,64.0,62.0,-100.00,SSE,149,1.0,4.0,94,0.06,,,0.32,323.000000,,2013-05-11 02:02:00,
2013-05-10 16:11:00,64.0,62.0,-100.00,SSE,149,1.0,4.0,94,0.06,,,0.32,323.000000,,2013-05-11 02:11:00,
2013-05-10 16:21:00,64.0,62.0,-100.00,SSE,149,1.0,4.0,94,0.06,,,0.32,323.000000,,2013-05-11 02:21:00,
2013-05-10 16:42:00,64.0,62.0,-100.00,ESE,105,1.0,5.0,94,0.06,,,0.38,325.000000,,2013-05-11 02:42:00,
2013-05-10 16:52:00,64.0,62.0,-100.00,ESE,105,1.0,5.0,94,0.06,,,0.38,325.000000,,2013-05-11 02:52:00,
2013-05-10 17:01:00,64.0,62.0,-100.00,ESE,105,1.0,5.0,94,0.06,,,0.38,325.000000,,2013-05-11 03:01:00,
2013-05-10 17:11:00,64.0,62.0,-100.00,ESE,105,1.0,5.0,94,0.06,,,0.38,325.000000,,2013-05-11 03:11:00,
2013-05-10 17:21:00,64.0,62.0,-100.00,ESE,105,1.0,5.0,94,0.06,,,0.38,325.000000,,2013-05-11 03:21:00,
2013-05-10 17:22:00,64.0,63.0,-100.00,ESE,102,1.0,5.0,96,0.04,,,0.42,218.000000,,2013-05-11 03:22:00,
2013-05-10 17:43:00,64.0,63.0,-100.00,ESE,102,1.0,5.0,96,0.04,,,0.42,218.000000,,2013-05-11 03:43:00,
2013-05-10 17:53:00,64.0,63.0,-100.00,ESE,102,1.0,5.0,96,0.04,,,0.42,218.000000,,2013-05-11 03:53:00,
2013-05-10 18:02:00,64.0,63.0,-100.00,ESE,102,1.0,5.0,96,0.04,,,0.42,218.000000,,2013-05-11 04:02:00,
2013-05-10 18:12:00,64.0,63.0,-100.00,ESE,102,1.0,5.0,96,0.04,,,0.42,218.000000,,2013-05-11 04:12:00,
2013-05-10 18:43:00,62.0,61.0,-100.00,East,91,1.0,7.0,96,0.02,,,0.44,132.000000,,2013-05-11 04:43:00,
2013-05-10 18:52:00,62.0,61.0,-100.00,East,91,1.0,7.0,96,0.02,,,0.44,132.000000,,2013-05-11 04:52:00,
2013-05-10 19:02:00,62.0,61.0,-100.00,East,91,1.0,7.0,96,0.02,,,0.44,132.000000,,2013-05-11 05:02:00,
2013-05-10 19:11:00,62.0,61.0,-100.00,East,91,1.0,7.0,96,0.02,,,0.44,132.000000,,2013-05-11 05:11:00,
2013-05-10 19:21:00,62.0,61.0,-100.00,East,91,1.0,7.0,96,0.02,,,0.44,132.000000,,2013-05-11 05:21:00,
2013-05-10 19:42:00,61.0,60.0,-100.00,East,87,1.0,5.0,96,0.02,,,0.46,47.000000,,2013-05-11 05:42:00,
2013-05-10 19:52:00,61.0,60.0,-100.00,East,87,1.0,5.0,96,0.02,,,0.46,47.000000,,2013-05-11 05:52:00,
2013-05-10 20:02:00,61.0,60.0,-100.00,East,87,1.0,5.0,96,0.02,,,0.46,47.000000,,2013-05-11 06:02:00,
2013-05-10 20:12:00,61.0,60.0,-100.00,East,87,1.0,5.0,96,0.02,,,0.46,47.000000,,2013-05-11 06:12:00,
2013-05-10 20:21:00,61.0,60.0,-100.00,East,87,1.0,5.0,96,0.02,,,0.46,47.000000,,2013-05-11 06:21:00,
2013-05-10 20:42:00,60.0,59.0,-100.00,East,97,1.0,8.0,97,0.04,,,0.50,0.000000,,2013-05-11 06:42:00,
2013-05-10 20:52:00,60.0,59.0,-100.00,East,97,1.0,8.0,97,0.04,,,0.50,0.000000,,2013-05-11 06:52:00,
2013-05-10 21:01:00,60.0,59.0,-100.00,East,97,1.0,8.0,97,0.04,,,0.50,0.000000,,2013-05-11 07:01:00,
2013-05-10 21:11:00,60.0,59.0,-100.00,East,97,1.0,8.0,97,0.04,,,0.50,0.000000,,2013-05-11 07:11:00,
2013-05-10 21:21:00,60.0,59.0,-100.00,East,97,1.0,8.0,97,0.04,,,0.50,0.000000,,2013-05-11 07:21:00,
2013-05-10 21:42:00,60.0,59.0,-100.00,ESE,114,1.0,6.0,97,0.16,,,-99.99,0.000000,,2013-05-11 07:42:00,
2013-05-10 21:52:00,60.0,59.0,-100.00,ESE,114,1.0,6.0,97,0.16,,,-99.99,0.000000,,2013-05-11 07:52:00,
2013-05-10 22:01:00,60.0,59.0,-100.00,ESE,114,1.0,6.0,97,0.16,,,-99.99,0.000000,,2013-05-11 08:01:00,
2013-05-10 22:12:00,60.0,59.0,-100.00,ESE,114,1.0,6.0,97,0.16,,,-99.99,0.000000,,2013-05-11 08:12:00,
2013-05-10 22:21:00,60.0,59.0,-100.00,ESE,114,1.0,6.0,97,0.16,,,-99.99,0.000000,,2013-05-11 08:21:00,
2013-05-10 22:43:00,60.0,59.0,-100.00,ESE,107,1.0,5.0,97,0.05,,,0.71,0.000000,,2013-05-11 08:43:00,
2013-05-10 22:52:00,60.0,59.0,-100.00,ESE,107,1.0,5.0,97,0.05,,,0.71,0.000000,,2013-05-11 08:52:00,
2013-05-10 23:01:00,60.0,59.0,-100.00,ESE,107,1.0,5.0,97,0.05,,,0.71,0.000000,,2013-05-11 09:01:00,
2013-05-10 23:11:00,60.0,59.0,-100.00,ESE,107,1.0,5.0,97,0.05,,,0.71,0.000000,,2013-05-11 09:11:00,
2013-05-10 23:21:00,60.0,59.0,-100.00,ESE,107,1.0,5.0,97,0.05,,,0.71,0.000000,,2013-05-11 09:21:00,
2013-05-10 23:22:00,60.0,59.0,-100.00,East,101,1.0,7.0,97,0.04,,,0.75,0.000000,,2013-05-11 09:22:00,
2013-05-10 23:42:00,60.0,59.0,-100.00,East,101,1.0,7.0,97,0.04,,,0.75,0.000000,,2013-05-11 09:42:00,
2013-05-10 23:52:00,60.0,59.0,-100.00,East,101,1.0,7.0,97,0.04,,,0.75,0.000000,,2013-05-11 09:52:00,